createdAt,value
2023-01-07T00:01:05.034Z,30.00
2023-01-07T00:02:07.559Z,36.97
2023-01-07T00:03:11.647Z,35.65
2023-01-07T00:04:15.841Z,34.30
2023-01-07T00:05:18.364Z,32.10
2023-01-07T00:06:29.650Z,30.92
2023-01-07T00:07:32.165Z,34.40
2023-01-07T00:08:37.328Z,30.67
2023-01-07T00:09:39.965Z,34.85
2023-01-07T00:10:42.490Z,33.65
2023-01-07T00:11:45.374Z,37.53
2023-01-07T00:12:48.024Z,33.92
2023-01-07T00:13:52.092Z,32.80
2023-01-07T00:14:54.979Z,33.20
2023-01-07T00:16:01.514Z,31.77
2023-01-07T00:17:04.098Z,39.85
2023-01-07T00:18:06.860Z,31.35
2023-01-07T00:19:14.301Z,33.30
2023-01-07T00:20:17.192Z,33.10
2023-01-07T00:21:21.510Z,33.55
2023-01-07T00:22:24.524Z,36.10
2023-01-07T00:23:30.270Z,31.38
2023-01-07T00:24:33.416Z,33.40
2023-01-07T00:25:36.518Z,33.75
2023-01-07T00:26:41.196Z,34.92
2023-01-07T00:27:44.316Z,30.90
2023-01-07T00:28:49.722Z,31.58
2023-01-07T00:29:52.839Z,32.05
2023-01-07T00:31:07.898Z,31.05
2023-01-07T00:32:11.089Z,32.55
2023-01-07T00:33:16.009Z,34.13
2023-01-07T00:34:23.808Z,30.58
2023-01-07T00:35:27.050Z,33.88
2023-01-07T00:36:32.372Z,33.97
2023-01-07T00:37:50.572Z,41.22
2023-01-07T00:39:18.174Z,33.85
2023-01-07T00:40:22.137Z,30.20
2023-01-07T00:41:25.865Z,34.28
2023-01-07T00:42:47.461Z,30.17
2023-01-07T00:43:50.583Z,30.83
2023-01-07T00:44:53.709Z,31.90
2023-01-07T00:45:56.945Z,36.30
2023-01-07T00:47:00.655Z,33.72
2023-01-07T00:48:05.350Z,31.20
2023-01-07T00:49:08.710Z,32.20
2023-01-07T00:50:12.197Z,32.80
2023-01-07T00:51:17.003Z,33.17
2023-01-07T00:52:20.479Z,31.80
2023-01-07T00:53:25.770Z,31.05
2023-01-07T00:54:29.009Z,33.80
2023-01-07T00:55:33.087Z,30.55
2023-01-07T00:56:35.975Z,33.28
2023-01-07T00:57:38.965Z,34.05
2023-01-07T00:58:42.459Z,34.80
2023-01-07T00:59:45.330Z,30.77
2023-01-07T01:00:48.119Z,33.97
2023-01-07T01:01:51.035Z,31.50
2023-01-07T01:02:54.292Z,37.55
2023-01-07T01:03:56.979Z,31.85
2023-01-07T01:04:59.550Z,28.63
2023-01-07T01:06:08.619Z,32.67
2023-01-07T01:07:11.501Z,28.10
2023-01-07T01:08:14.261Z,27.63
2023-01-07T01:09:17.027Z,33.17
2023-01-07T01:10:20.556Z,35.38
2023-01-07T01:11:23.194Z,31.83
2023-01-07T01:12:25.714Z,31.27
2023-01-07T01:13:28.237Z,28.92
2023-01-07T01:14:30.885Z,30.52
2023-01-07T01:15:33.478Z,28.88
2023-01-07T01:16:36.091Z,27.70
2023-01-07T01:17:39.877Z,33.83
2023-01-07T01:18:43.079Z,29.55
2023-01-07T01:19:45.760Z,32.08
2023-01-07T01:20:48.525Z,34.35
2023-01-07T01:21:51.406Z,31.20
2023-01-07T01:22:53.929Z,36.08
2023-01-07T01:23:56.686Z,30.60
2023-01-07T01:24:59.207Z,31.67
2023-01-07T01:26:07.571Z,29.77
2023-01-07T01:27:10.132Z,25.50
2023-01-07T01:28:12.893Z,30.38
2023-01-07T01:29:15.410Z,35.50
2023-01-07T01:30:18.027Z,32.78
2023-01-07T01:31:20.736Z,28.02
2023-01-07T01:32:26.911Z,29.25
2023-01-07T01:33:30.417Z,27.92
2023-01-07T01:34:33.057Z,30.50
2023-01-07T01:35:40.138Z,33.08
2023-01-07T01:36:42.897Z,28.38
2023-01-07T01:37:45.409Z,31.38
2023-01-07T01:38:48.651Z,30.55
2023-01-07T01:39:51.293Z,30.83
2023-01-07T01:40:53.825Z,28.95
2023-01-07T01:41:56.814Z,28.63
2023-01-07T01:42:59.455Z,28.45
2023-01-07T01:44:23.094Z,26.75
2023-01-07T01:45:26.337Z,30.02
2023-01-07T01:46:37.817Z,29.48
2023-01-07T01:47:46.859Z,27.60
2023-01-07T01:48:55.980Z,34.88
2023-01-07T01:50:17.577Z,26.50
2023-01-07T01:51:24.537Z,28.67
2023-01-07T01:52:56.703Z,27.83
2023-01-07T01:53:59.470Z,29.80
2023-01-07T01:55:05.235Z,26.60
2023-01-07T01:56:16.747Z,28.67
2023-01-07T01:57:21.544Z,27.65
2023-01-07T01:58:40.992Z,26.13
2023-01-07T01:59:48.427Z,25.38
2023-01-07T02:00:52.198Z,25.92
2023-01-07T02:01:55.305Z,31.38
2023-01-07T02:02:59.950Z,25.88
2023-01-07T02:04:07.760Z,29.88
2023-01-07T02:05:10.765Z,27.02
2023-01-07T02:06:25.643Z,27.70
2023-01-07T02:07:29.725Z,23.88
2023-01-07T02:08:33.679Z,26.40
2023-01-07T02:09:41.483Z,30.20
2023-01-07T02:10:45.092Z,28.63
2023-01-07T02:12:09.087Z,27.90
2023-01-07T02:13:17.614Z,28.40
2023-01-07T02:14:20.013Z,25.77
2023-01-07T02:15:25.662Z,29.40
2023-01-07T02:16:33.894Z,28.17
2023-01-07T02:17:58.417Z,29.42
2023-01-07T02:19:17.260Z,30.30
2023-01-07T02:20:47.147Z,28.25
2023-01-07T02:22:11.503Z,26.27
2023-01-07T02:23:26.512Z,28.30
2023-01-07T02:24:55.445Z,26.50
2023-01-07T02:26:40.790Z,26.88
2023-01-07T02:28:05.643Z,24.45
2023-01-07T02:29:33.236Z,26.48
2023-01-07T02:30:55.802Z,25.05
2023-01-07T02:32:19.683Z,28.30
2023-01-07T02:33:22.807Z,25.88
2023-01-07T02:35:03.017Z,25.50
2023-01-07T02:36:38.287Z,26.40
2023-01-07T02:38:12.968Z,25.73
2023-01-07T02:39:39.375Z,26.13
2023-01-07T02:41:09.139Z,23.95
2023-01-07T02:42:18.018Z,27.40
2023-01-07T02:43:26.299Z,28.48
2023-01-07T02:44:37.708Z,25.77
2023-01-07T02:45:50.327Z,27.63
2023-01-07T02:47:16.958Z,25.77
2023-01-07T02:48:24.507Z,28.38
2023-01-07T02:49:28.226Z,28.10
2023-01-07T02:50:31.480Z,26.70
2023-01-07T02:51:39.879Z,27.23
2023-01-07T02:52:43.117Z,27.13
2023-01-07T02:53:48.994Z,27.33
2023-01-07T02:55:15.518Z,29.63
2023-01-07T02:56:42.160Z,28.35
2023-01-07T02:58:14.920Z,25.15
2023-01-07T02:59:32.570Z,24.35
2023-01-07T03:01:08.503Z,25.80
2023-01-07T03:02:42.414Z,24.70
2023-01-07T03:04:08.612Z,26.42
2023-01-07T03:05:29.576Z,23.33
2023-01-07T03:08:45.673Z,27.13
2023-01-07T03:10:34.263Z,26.02
2023-01-07T03:11:45.711Z,25.88
2023-01-07T03:12:58.641Z,28.40
2023-01-07T03:14:08.953Z,25.17
2023-01-07T03:15:22.677Z,27.58
2023-01-07T03:16:32.723Z,25.90
2023-01-07T03:17:42.606Z,28.48
2023-01-07T03:19:03.075Z,27.60
2023-01-07T03:20:07.076Z,24.42
2023-01-07T03:21:14.359Z,26.88
2023-01-07T03:22:20.764Z,26.88
2023-01-07T03:23:26.648Z,24.80
2023-01-07T03:24:31.444Z,28.50
2023-01-07T03:25:39.245Z,25.58
2023-01-07T03:26:49.825Z,26.35
2023-01-07T03:27:53.851Z,24.15
2023-01-07T03:29:00.980Z,27.00
2023-01-07T03:30:09.462Z,28.60
2023-01-07T03:31:15.864Z,25.50
2023-01-07T03:32:25.088Z,29.25
2023-01-07T03:33:36.339Z,26.38
2023-01-07T03:34:39.726Z,23.00
2023-01-07T03:35:47.420Z,22.67
2023-01-07T03:36:58.692Z,25.67
2023-01-07T03:38:04.668Z,26.60
2023-01-07T03:39:11.057Z,26.90
2023-01-07T03:40:14.174Z,24.48
2023-01-07T03:41:37.340Z,24.95
2023-01-07T03:42:41.790Z,25.35
2023-01-07T03:43:53.897Z,27.65
2023-01-07T03:44:57.615Z,23.23
2023-01-07T03:46:02.163Z,26.92
2023-01-07T03:47:05.182Z,23.27
2023-01-07T03:48:07.944Z,26.67
2023-01-07T03:49:13.337Z,26.27
2023-01-07T03:50:17.305Z,24.60
2023-01-07T03:51:20.899Z,22.10
2023-01-07T03:52:23.441Z,23.10
2023-01-07T03:53:26.078Z,24.15
2023-01-07T03:54:29.064Z,21.55
2023-01-07T03:55:32.060Z,22.50
2023-01-07T03:56:34.954Z,24.13
2023-01-07T03:57:37.948Z,21.02
2023-01-07T03:58:40.703Z,23.58
2023-01-07T03:59:43.230Z,27.92
2023-01-07T04:00:45.932Z,20.58
2023-01-07T04:01:53.143Z,19.83
2023-01-07T04:02:56.207Z,24.48
2023-01-07T04:04:04.057Z,18.55
2023-01-07T04:05:07.354Z,22.40
2023-01-07T04:06:10.001Z,20.95
2023-01-07T04:07:13.837Z,19.48
2023-01-07T04:08:16.483Z,21.73
2023-01-07T04:09:19.011Z,26.83
2023-01-07T04:10:22.364Z,21.38
2023-01-07T04:11:24.881Z,22.08
2023-01-07T04:12:27.437Z,23.20
2023-01-07T04:13:30.678Z,24.42
2023-01-07T04:14:33.169Z,24.33
2023-01-07T04:15:35.942Z,19.42
2023-01-07T04:16:38.828Z,21.55
2023-01-07T04:17:42.052Z,18.73
2023-01-07T04:18:44.814Z,21.48
2023-01-07T04:19:47.575Z,21.05
2023-01-07T04:20:50.337Z,22.83
2023-01-07T04:21:53.099Z,20.80
2023-01-07T04:22:55.862Z,20.80
2023-01-07T04:23:58.782Z,21.77
2023-01-07T04:25:02.235Z,23.77
2023-01-07T04:26:06.547Z,21.23
2023-01-07T04:27:09.797Z,23.60
2023-01-07T04:28:12.790Z,23.77
2023-01-07T04:29:16.031Z,19.98
2023-01-07T04:30:19.152Z,22.35
2023-01-07T04:31:22.280Z,23.45
2023-01-07T04:32:25.769Z,21.02
2023-01-07T04:33:28.882Z,23.73
2023-01-07T04:34:32.238Z,21.45
2023-01-07T04:35:35.839Z,21.25
2023-01-07T04:36:39.323Z,20.15
2023-01-07T04:37:42.446Z,21.85
2023-01-07T04:38:45.567Z,20.52
2023-01-07T04:39:48.810Z,22.17
2023-01-07T04:40:51.937Z,17.60
2023-01-07T04:41:55.050Z,20.70
2023-01-07T04:42:58.174Z,20.33
2023-01-07T04:44:01.423Z,20.38
2023-01-07T04:45:04.897Z,25.08
2023-01-07T04:46:08.117Z,18.58
2023-01-07T04:47:12.103Z,24.17
2023-01-07T04:48:15.581Z,20.40
2023-01-07T04:49:18.703Z,20.00
2023-01-07T04:50:23.025Z,20.45
2023-01-07T04:51:26.525Z,20.33
2023-01-07T04:52:29.869Z,21.45
2023-01-07T04:53:33.366Z,21.88
2023-01-07T04:54:37.920Z,21.40
2023-01-07T04:55:41.275Z,20.50
2023-01-07T04:56:44.756Z,22.05
2023-01-07T04:57:48.850Z,24.92
2023-01-07T04:58:52.799Z,22.30
2023-01-07T04:59:56.279Z,22.17
2023-01-07T05:01:00.200Z,21.52
2023-01-07T05:02:04.791Z,21.30
2023-01-07T05:03:07.923Z,19.27
2023-01-07T05:04:11.570Z,20.73
2023-01-07T05:05:14.407Z,24.35
2023-01-07T05:06:16.933Z,20.90
2023-01-07T05:07:19.692Z,17.58
2023-01-07T05:08:23.182Z,20.48
2023-01-07T05:09:25.817Z,21.70
2023-01-07T05:10:28.462Z,21.85
2023-01-07T05:11:31.341Z,26.70
2023-01-07T05:12:38.191Z,20.30
2023-01-07T05:13:43.709Z,20.58
2023-01-07T05:14:46.512Z,17.48
2023-01-07T05:15:49.874Z,18.85
2023-01-07T05:16:52.762Z,21.98
2023-01-07T05:17:55.278Z,21.48
2023-01-07T05:18:59.674Z,18.58
2023-01-07T05:20:02.731Z,20.48
2023-01-07T05:21:05.597Z,21.85
2023-01-07T05:22:10.161Z,18.50
2023-01-07T05:23:15.099Z,19.63
2023-01-07T05:24:19.519Z,16.90
2023-01-07T05:25:22.124Z,18.80
2023-01-07T05:26:25.047Z,16.90
2023-01-07T05:27:28.405Z,21.17
2023-01-07T05:28:30.928Z,18.73
2023-01-07T05:29:33.570Z,18.63
2023-01-07T05:30:36.600Z,18.42
2023-01-07T05:31:39.701Z,21.88
2023-01-07T05:32:43.288Z,17.00
2023-01-07T05:33:45.810Z,16.88
2023-01-07T05:34:48.807Z,15.95
2023-01-07T05:35:51.932Z,17.75
2023-01-07T05:36:54.687Z,18.85
2023-01-07T05:37:57.329Z,18.00
2023-01-07T05:39:00.123Z,15.95
2023-01-07T05:40:02.859Z,18.25
2023-01-07T05:41:05.733Z,19.10
2023-01-07T05:42:08.379Z,16.52
2023-01-07T05:43:11.140Z,16.90
2023-01-07T05:44:13.795Z,20.27
2023-01-07T05:45:16.446Z,15.45
2023-01-07T05:46:19.239Z,22.13
2023-01-07T05:47:21.951Z,16.25
2023-01-07T05:48:24.574Z,17.58
2023-01-07T05:49:27.096Z,18.20
2023-01-07T05:50:29.622Z,18.45
2023-01-07T05:51:32.388Z,25.63
2023-01-07T05:52:35.017Z,17.30
2023-01-07T05:53:37.789Z,18.05
2023-01-07T05:54:40.310Z,14.57
2023-01-07T05:55:42.821Z,18.88
2023-01-07T05:56:45.465Z,19.17
2023-01-07T05:57:47.990Z,16.90
2023-01-07T05:58:50.502Z,16.65
2023-01-07T05:59:53.022Z,15.65
2023-01-07T06:00:55.976Z,16.05
2023-01-07T06:01:58.672Z,17.95
2023-01-07T06:03:01.086Z,15.80
2023-01-07T06:04:03.587Z,20.13
2023-01-07T06:05:06.649Z,16.55
2023-01-07T06:06:09.237Z,17.33
2023-01-07T06:07:11.756Z,14.77
2023-01-07T06:08:14.765Z,16.60
2023-01-07T06:09:17.283Z,15.20
2023-01-07T06:10:19.797Z,16.05
2023-01-07T06:11:22.442Z,13.50
2023-01-07T06:12:24.965Z,16.02
2023-01-07T06:13:27.484Z,14.68
2023-01-07T06:14:30.008Z,15.90
2023-01-07T06:15:32.620Z,13.40
2023-01-07T06:16:35.570Z,14.05
2023-01-07T06:17:38.321Z,17.00
2023-01-07T06:18:40.814Z,16.67
2023-01-07T06:19:43.753Z,13.05
2023-01-07T06:20:46.335Z,14.40
2023-01-07T06:21:50.063Z,11.45
2023-01-07T06:22:52.944Z,12.10
2023-01-07T06:23:56.186Z,15.80
2023-01-07T06:24:58.947Z,18.52
2023-01-07T06:26:01.705Z,15.93
2023-01-07T06:27:04.718Z,13.20
2023-01-07T06:28:07.606Z,14.05
2023-01-07T06:29:11.089Z,14.90
2023-01-07T06:30:14.189Z,14.68
2023-01-07T06:31:17.385Z,13.73
2023-01-07T06:32:20.555Z,13.32
2023-01-07T06:33:23.925Z,13.45
2023-01-07T06:34:27.039Z,13.63
2023-01-07T06:35:30.163Z,10.73
2023-01-07T06:36:33.287Z,12.07
2023-01-07T06:37:36.402Z,11.70
2023-01-07T06:38:39.644Z,12.25
2023-01-07T06:39:42.764Z,11.05
2023-01-07T06:40:45.885Z,9.88
2023-01-07T06:41:49.009Z,12.98
2023-01-07T06:42:52.132Z,12.88
2023-01-07T06:43:55.374Z,12.52
2023-01-07T06:44:58.615Z,11.95
2023-01-07T06:46:01.795Z,10.88
2023-01-07T06:47:05.102Z,11.52
2023-01-07T06:48:08.223Z,12.43
2023-01-07T06:49:11.342Z,9.88
2023-01-07T06:50:15.915Z,10.55
2023-01-07T06:51:19.264Z,11.95
2023-01-07T06:52:22.401Z,11.63
2023-01-07T06:53:25.756Z,11.18
2023-01-07T06:54:28.866Z,11.75
2023-01-07T06:55:32.114Z,9.32
2023-01-07T06:56:35.233Z,9.35
2023-01-07T06:57:38.476Z,10.52
2023-01-07T06:58:41.722Z,12.93
2023-01-07T06:59:44.974Z,9.13
2023-01-07T07:00:48.199Z,10.40
2023-01-07T07:01:51.710Z,14.05
2023-01-07T07:02:54.737Z,13.15
2023-01-07T07:03:57.691Z,14.52
2023-01-07T07:05:00.689Z,11.27
2023-01-07T07:06:03.689Z,12.85
2023-01-07T07:07:06.690Z,9.23
2023-01-07T07:08:09.571Z,33.13
2023-01-07T07:09:12.331Z,14.15
2023-01-07T07:10:14.993Z,10.75
2023-01-07T07:11:17.623Z,11.32
2023-01-07T07:12:20.374Z,11.10
2023-01-07T07:13:22.995Z,11.82
2023-01-07T07:14:25.599Z,10.23
2023-01-07T07:15:28.432Z,11.90
2023-01-07T07:16:32.641Z,9.90
2023-01-07T07:17:35.388Z,12.88
2023-01-07T07:18:37.963Z,13.73
2023-01-07T07:19:40.593Z,13.40
2023-01-07T07:20:43.192Z,11.75
2023-01-07T07:21:47.196Z,10.50
2023-01-07T07:22:49.682Z,11.60
2023-01-07T07:23:52.357Z,12.18
2023-01-07T07:24:54.883Z,11.95
2023-01-07T07:25:57.405Z,11.18
2023-01-07T07:27:00.399Z,14.48
2023-01-07T07:28:03.075Z,13.00
2023-01-07T07:29:05.562Z,12.98
2023-01-07T07:30:08.694Z,10.57
2023-01-07T07:31:11.580Z,12.93
2023-01-07T07:32:14.211Z,11.60
2023-01-07T07:33:19.388Z,11.63
2023-01-07T07:34:22.339Z,14.07
2023-01-07T07:35:24.897Z,12.65
2023-01-07T07:36:27.419Z,14.13
2023-01-07T07:37:30.174Z,12.48
2023-01-07T07:38:32.781Z,14.35
2023-01-07T07:39:35.452Z,18.42
2023-01-07T07:40:37.991Z,12.73
2023-01-07T07:41:40.613Z,16.52
2023-01-07T07:43:10.169Z,13.48
2023-01-07T07:44:07.492Z,17.17
2023-01-07T07:45:10.612Z,13.95
2023-01-07T07:46:13.286Z,16.58
2023-01-07T07:47:16.279Z,14.00
2023-01-07T07:48:18.899Z,13.00
2023-01-07T07:49:21.534Z,17.60
2023-01-07T07:50:24.175Z,15.63
2023-01-07T07:51:27.062Z,14.52
2023-01-07T07:52:29.579Z,12.43
2023-01-07T07:53:32.223Z,14.98
2023-01-07T07:54:35.218Z,15.07
2023-01-07T07:55:38.599Z,14.23
2023-01-07T07:56:41.219Z,10.23
2023-01-07T07:57:43.752Z,12.55
2023-01-07T07:58:46.263Z,11.52
2023-01-07T07:59:48.780Z,12.20
2023-01-07T08:00:51.326Z,11.23
2023-01-07T08:01:53.890Z,11.52
2023-01-07T08:02:59.970Z,12.20
2023-01-07T08:04:02.595Z,11.38
2023-01-07T08:05:05.704Z,12.88
2023-01-07T08:06:08.344Z,14.10
2023-01-07T08:07:12.196Z,11.38
2023-01-07T08:08:15.197Z,13.65
2023-01-07T08:09:17.720Z,11.82
2023-01-07T08:10:20.957Z,10.98
2023-01-07T08:11:23.476Z,14.40
2023-01-07T08:12:25.997Z,11.38
2023-01-07T08:13:30.559Z,12.68
2023-01-07T08:14:33.198Z,12.75
2023-01-07T08:15:36.446Z,11.05
2023-01-07T08:16:39.030Z,12.77
2023-01-07T08:17:41.605Z,11.85
2023-01-07T08:18:44.260Z,10.63
2023-01-07T08:19:46.768Z,14.93
2023-01-07T08:20:49.890Z,11.50
2023-01-07T08:21:52.537Z,13.25
2023-01-07T08:22:55.055Z,12.90
2023-01-07T08:23:57.699Z,12.40
2023-01-07T08:25:00.812Z,11.63
2023-01-07T08:26:04.190Z,11.57
2023-01-07T08:27:06.945Z,11.90
2023-01-07T08:28:11.022Z,9.20
2023-01-07T08:29:13.902Z,11.30
2023-01-07T08:30:17.403Z,12.18
2023-01-07T08:31:20.796Z,11.50
2023-01-07T08:32:24.142Z,10.15
2023-01-07T08:33:27.230Z,13.85
2023-01-07T08:34:30.352Z,19.48
2023-01-07T08:35:33.957Z,10.18
2023-01-07T08:36:37.075Z,9.98
2023-01-07T08:37:41.639Z,12.13
2023-01-07T08:38:44.765Z,12.68
2023-01-07T08:39:47.884Z,12.05
2023-01-07T08:40:51.125Z,12.02
2023-01-07T08:41:54.844Z,11.93
2023-01-07T08:43:01.925Z,11.40
2023-01-07T08:44:05.169Z,9.27
2023-01-07T08:45:10.210Z,9.00
2023-01-07T08:46:13.552Z,10.32
2023-01-07T08:47:16.813Z,12.48
2023-01-07T08:48:20.899Z,10.65
2023-01-07T08:49:24.018Z,9.85
2023-01-07T08:50:31.584Z,12.27
2023-01-07T08:51:34.696Z,10.00
2023-01-07T08:52:37.945Z,9.75
2023-01-07T08:53:41.303Z,9.95
2023-01-07T08:54:45.672Z,9.63
2023-01-07T08:55:51.145Z,8.98
2023-01-07T08:56:54.508Z,9.63
2023-01-07T08:57:57.877Z,12.88
2023-01-07T08:59:01.353Z,10.68
2023-01-07T09:00:05.801Z,7.60
2023-01-07T09:01:09.367Z,9.23
2023-01-07T09:02:18.453Z,8.88
2023-01-07T09:03:22.121Z,6.97
2023-01-07T09:04:25.244Z,8.10
2023-01-07T09:05:28.005Z,8.93
2023-01-07T09:06:31.014Z,7.78
2023-01-07T09:07:33.767Z,7.30
2023-01-07T09:08:36.766Z,9.32
2023-01-07T09:09:39.537Z,8.68
2023-01-07T09:10:42.291Z,5.97
2023-01-07T09:11:48.027Z,6.95
2023-01-07T09:12:52.134Z,5.57
2023-01-07T09:13:54.775Z,8.18
2023-01-07T09:14:57.710Z,6.30
2023-01-07T09:16:00.502Z,6.13
2023-01-07T09:17:03.182Z,11.15
2023-01-07T09:18:07.096Z,6.03
2023-01-07T09:19:09.596Z,7.68
2023-01-07T09:20:12.183Z,4.60
2023-01-07T09:21:14.833Z,5.35
2023-01-07T09:22:17.525Z,6.60
2023-01-07T09:23:20.157Z,5.18
2023-01-07T09:24:22.753Z,6.15
2023-01-07T09:25:25.441Z,6.32
2023-01-07T09:26:27.961Z,8.45
2023-01-07T09:27:30.601Z,3.97
2023-01-07T09:28:33.211Z,6.05
2023-01-07T09:29:35.846Z,4.70
2023-01-07T09:30:38.483Z,6.35
2023-01-07T09:31:41.228Z,4.47
2023-01-07T09:32:44.737Z,4.93
2023-01-07T09:33:47.171Z,4.90
2023-01-07T09:34:50.414Z,5.07
2023-01-07T09:35:53.050Z,4.55
2023-01-07T09:36:55.564Z,5.43
2023-01-07T09:37:58.086Z,3.95
2023-01-07T09:39:01.803Z,5.32
2023-01-07T09:40:07.209Z,3.53
2023-01-07T09:41:24.941Z,3.70
2023-01-07T09:42:51.348Z,3.40
2023-01-07T09:43:59.431Z,4.68
2023-01-07T09:45:23.532Z,5.53
2023-01-07T09:46:27.253Z,6.15
2023-01-07T09:47:30.253Z,5.45
2023-01-07T09:48:58.817Z,3.67
2023-01-07T09:50:14.772Z,5.78
2023-01-07T09:51:25.699Z,4.10
2023-01-07T09:52:38.655Z,3.15
2023-01-07T09:53:44.414Z,3.45
2023-01-07T09:54:52.216Z,5.13
2023-01-07T09:56:10.503Z,2.78
2023-01-07T09:57:17.917Z,3.38
2023-01-07T09:58:22.457Z,3.70
2023-01-07T09:59:25.219Z,4.07
2023-01-07T10:00:29.784Z,3.22
2023-01-07T10:01:46.823Z,2.80
2023-01-07T10:03:01.395Z,3.03
2023-01-07T10:04:32.903Z,2.58
2023-01-07T10:05:57.864Z,2.50
2023-01-07T10:07:29.064Z,2.97
2023-01-07T10:10:01.110Z,4.18
2023-01-07T10:11:34.716Z,2.63
2023-01-07T10:13:03.428Z,2.85
2023-01-07T10:14:21.526Z,3.15
2023-01-07T10:15:42.564Z,2.15
2023-01-07T10:18:16.511Z,2.65
2023-01-07T10:19:42.769Z,2.60
2023-01-07T10:20:47.934Z,1.52
2023-01-07T10:22:04.847Z,1.95
2023-01-07T10:23:24.210Z,2.33
2023-01-07T10:24:28.259Z,2.08
2023-01-07T10:25:40.750Z,2.40
2023-01-07T10:26:48.431Z,2.53
2023-01-07T10:27:53.377Z,1.98
2023-01-07T10:29:02.820Z,4.38
2023-01-07T10:30:11.942Z,1.20
2023-01-07T10:31:23.038Z,2.22
2023-01-07T10:32:32.347Z,3.17
2023-01-07T10:33:35.351Z,1.45
2023-01-07T10:34:44.957Z,1.45
2023-01-07T10:35:56.135Z,2.03
2023-01-07T10:37:07.393Z,11.73
2023-01-07T10:38:19.165Z,3.33
2023-01-07T10:39:30.318Z,5.40
2023-01-07T10:40:43.878Z,1.67
2023-01-07T10:41:55.879Z,2.30
2023-01-07T10:43:20.361Z,2.50
2023-01-07T10:44:38.378Z,2.20
2023-01-07T10:46:02.657Z,3.50
2023-01-07T10:47:11.614Z,1.23
2023-01-07T10:48:38.011Z,1.13
2023-01-07T10:50:05.625Z,2.00
2023-01-07T10:51:38.384Z,2.55
2023-01-07T10:53:40.182Z,1.73
2023-01-07T10:56:00.584Z,2.25
2023-01-07T10:57:10.423Z,2.95
2023-01-07T10:58:13.545Z,2.15
2023-01-07T10:59:20.636Z,3.33
2023-01-07T11:00:25.430Z,2.13
2023-01-07T11:01:40.526Z,2.72
2023-01-07T11:02:47.089Z,2.28
2023-01-07T11:03:53.757Z,2.30
2023-01-07T11:04:58.204Z,1.95
2023-01-07T11:06:09.120Z,2.67
2023-01-07T11:07:24.967Z,2.05
2023-01-07T11:08:39.133Z,3.55
2023-01-07T11:09:44.527Z,3.92
2023-01-07T11:10:48.143Z,4.65
2023-01-07T11:11:52.093Z,1.77
2023-01-07T11:13:07.760Z,2.17
2023-01-07T11:14:19.939Z,3.47
2023-01-07T11:15:33.019Z,1.92
2023-01-07T11:16:47.703Z,2.42
2023-01-07T11:17:56.721Z,1.98
2023-01-07T11:19:11.002Z,1.15
2023-01-07T11:20:13.754Z,3.72
2023-01-07T11:21:42.685Z,2.00
2023-01-07T11:22:47.187Z,3.35
2023-01-07T11:23:49.950Z,4.25
2023-01-07T11:24:59.926Z,1.65
2023-01-07T11:26:19.634Z,4.55
2023-01-07T11:27:25.360Z,2.05
2023-01-07T11:28:29.244Z,1.30
2023-01-07T11:29:42.948Z,1.83
2023-01-07T11:30:55.637Z,4.38
2023-01-07T11:32:04.111Z,1.48
2023-01-07T11:33:07.493Z,3.05
2023-01-07T11:34:23.971Z,1.42
2023-01-07T11:35:29.095Z,1.67
2023-01-07T11:36:42.324Z,2.22
2023-01-07T11:37:47.452Z,1.55
2023-01-07T11:38:50.018Z,3.92
2023-01-07T11:39:59.830Z,7.07
2023-01-07T11:41:05.244Z,4.40
2023-01-07T11:42:40.766Z,4.38
2023-01-07T11:43:49.412Z,11.68
2023-01-07T11:45:23.846Z,2.92
2023-01-07T11:46:28.904Z,5.43
2023-01-07T11:47:56.719Z,4.25
2023-01-07T11:49:01.154Z,3.95
2023-01-07T11:50:04.295Z,3.33
2023-01-07T11:51:11.741Z,5.00
2023-01-07T11:52:21.576Z,6.70
2023-01-07T11:53:31.775Z,12.85
2023-01-07T11:54:34.415Z,5.00
2023-01-07T11:55:37.065Z,9.50
2023-01-07T11:56:39.816Z,6.57
2023-01-07T11:58:00.944Z,10.13
2023-01-07T11:59:27.576Z,6.53
2023-01-07T12:00:31.670Z,12.50
2023-01-07T12:01:45.828Z,8.63
2023-01-07T12:03:11.441Z,11.02
2023-01-07T12:04:20.138Z,5.50
2023-01-07T12:05:24.834Z,2.40
2023-01-07T12:06:36.579Z,0.95
2023-01-07T12:07:45.579Z,1.27
2023-01-07T12:08:55.305Z,3.90
2023-01-07T12:09:57.822Z,1.52
2023-01-07T12:11:07.552Z,1.00
2023-01-07T12:12:37.382Z,1.38
2023-01-07T12:13:41.996Z,1.23
2023-01-07T12:14:48.009Z,2.90
2023-01-07T12:15:57.833Z,2.00
2023-01-07T12:17:09.141Z,1.30
2023-01-07T12:18:36.156Z,0.88
2023-01-07T12:19:53.642Z,0.88
2023-01-07T12:21:19.684Z,0.90
2023-01-07T12:22:40.576Z,1.05
2023-01-07T12:23:55.450Z,1.40
2023-01-07T12:25:22.576Z,1.30
2023-01-07T12:26:34.706Z,2.20
2023-01-07T12:27:59.785Z,5.00
2023-01-07T12:29:29.660Z,1.52
2023-01-07T12:31:03.564Z,0.90
2023-01-07T12:33:01.704Z,2.85
2023-01-07T12:34:16.228Z,1.08
2023-01-07T12:35:27.024Z,2.67
2023-01-07T12:36:36.515Z,1.60
2023-01-07T12:37:42.761Z,1.20
2023-01-07T12:38:54.872Z,2.78
2023-01-07T12:40:26.436Z,1.23
2023-01-07T12:41:39.636Z,0.85
2023-01-07T12:42:51.521Z,1.33
2023-01-07T12:44:20.082Z,1.75
2023-01-07T12:45:55.358Z,1.30
2023-01-07T12:47:32.379Z,2.35
2023-01-07T12:48:56.687Z,2.05
2023-01-07T12:50:11.089Z,2.00
2023-01-07T12:51:23.941Z,2.63
2023-01-07T12:52:56.331Z,1.10
2023-01-07T12:54:42.657Z,1.25
2023-01-07T12:56:03.663Z,1.05
2023-01-07T12:58:50.344Z,0.82
2023-01-07T13:00:05.225Z,2.17
2023-01-07T13:01:27.330Z,4.70
2023-01-07T13:02:33.448Z,3.38
2023-01-07T13:04:09.790Z,0.88
2023-01-07T13:05:18.430Z,0.80
2023-01-07T13:06:33.799Z,3.33
2023-01-07T13:07:43.168Z,2.03
2023-01-07T13:09:39.442Z,1.92
2023-01-07T13:10:48.099Z,8.52
2023-01-07T13:12:42.402Z,0.98
2023-01-07T13:13:46.889Z,2.47
2023-01-07T13:14:54.983Z,1.77
2023-01-07T13:15:57.814Z,0.68
2023-01-07T13:17:14.980Z,2.35
2023-01-07T13:18:20.613Z,1.08
2023-01-07T13:19:23.255Z,1.67
2023-01-07T13:20:44.680Z,3.13
2023-01-07T13:21:49.782Z,1.17
2023-01-07T13:22:56.628Z,1.00
2023-01-07T13:24:56.124Z,1.20
2023-01-07T13:26:14.918Z,0.90
2023-01-07T13:27:20.392Z,1.23
2023-01-07T13:28:32.152Z,1.15
2023-01-07T13:29:49.673Z,0.77
2023-01-07T13:31:01.395Z,1.15
2023-01-07T13:32:16.448Z,3.15
2023-01-07T13:33:34.724Z,2.05
2023-01-07T13:34:55.812Z,0.73
2023-01-07T13:37:35.046Z,2.10
2023-01-07T13:38:43.361Z,1.40
2023-01-07T13:40:13.842Z,4.30
2023-01-07T13:41:48.648Z,6.82
2023-01-07T13:42:59.324Z,2.20
2023-01-07T13:44:10.009Z,1.15
2023-01-07T13:45:21.630Z,0.93
2023-01-07T13:46:36.843Z,5.57
2023-01-07T13:47:59.942Z,2.17
2023-01-07T13:49:02.960Z,2.45
2023-01-07T13:50:06.408Z,4.72
2023-01-07T13:51:10.519Z,5.60
2023-01-07T13:52:18.289Z,0.85
2023-01-07T13:53:20.812Z,4.40
2023-01-07T13:55:02.096Z,9.00
2023-01-07T13:57:32.012Z,3.70
2023-01-07T13:58:42.906Z,2.45
2023-01-07T13:59:50.457Z,2.20
2023-01-07T14:01:09.024Z,0.95
2023-01-07T14:02:19.395Z,0.93
2023-01-07T14:03:27.777Z,2.75
2023-01-07T14:04:34.988Z,2.33
2023-01-07T14:05:37.498Z,1.15
2023-01-07T14:06:46.618Z,1.08
2023-01-07T14:07:55.383Z,0.85
2023-01-07T14:09:13.755Z,3.15
2023-01-07T14:10:28.627Z,1.30
2023-01-07T14:11:31.028Z,1.05
2023-01-07T14:13:00.309Z,2.97
2023-01-07T14:14:30.440Z,1.70
2023-01-07T14:15:48.227Z,1.10
2023-01-07T14:17:28.879Z,1.95
2023-01-07T14:19:01.763Z,1.40
2023-01-07T14:20:18.336Z,4.22
2023-01-07T14:21:49.898Z,1.17
2023-01-07T14:23:11.137Z,0.90
2023-01-07T14:24:25.765Z,1.65
2023-01-07T14:25:46.173Z,3.15
2023-01-07T14:27:22.770Z,1.17
2023-01-07T14:28:52.652Z,1.05
2023-01-07T14:30:02.919Z,1.65
2023-01-07T14:31:28.281Z,0.88
2023-01-07T14:32:37.333Z,1.13
2023-01-07T14:33:50.022Z,2.30
2023-01-07T14:35:10.916Z,1.95
2023-01-07T14:36:14.026Z,3.33
2023-01-07T14:37:17.509Z,1.33
2023-01-07T14:38:32.650Z,1.60
2023-01-07T14:39:44.639Z,0.63
2023-01-07T14:40:47.876Z,4.78
2023-01-07T14:42:28.435Z,1.00
2023-01-07T14:43:43.918Z,1.33
2023-01-07T14:44:48.485Z,2.08
2023-01-07T14:45:54.601Z,1.35
2023-01-07T14:46:57.926Z,1.27
2023-01-07T14:48:01.106Z,1.75
2023-01-07T14:49:41.049Z,2.05
2023-01-07T14:50:57.613Z,0.80
2023-01-07T14:52:38.171Z,1.20
2023-01-07T14:54:20.054Z,1.27
2023-01-07T14:55:37.344Z,1.23
2023-01-07T14:56:50.778Z,2.22
2023-01-07T14:58:26.067Z,2.08
2023-01-07T14:59:50.306Z,0.93
2023-01-07T15:01:13.794Z,1.17
2023-01-07T15:02:37.755Z,0.98
2023-01-07T15:03:53.550Z,2.35
2023-01-07T15:05:18.156Z,1.23
2023-01-07T15:06:31.717Z,1.38
2023-01-07T15:07:39.161Z,2.00